Time;durP1;ratioP1;P1;durP2;ratioP2;P2;SDS_P1;SDS_P2;PMS_P1;PMS_P2;Temp;Humidity;BMP_temperature;BMP_pressure;BME280_temperature;BME280_humidity;BME280_pressure;Samples;Min_cycle;Max_cycle;Signal;HPM_P1;HPM_P2
2022/03/01 00:01:02;;;;;;;13.73;6.35;;;;;;;8.88;96.00;101380.09;5080927;28;20032;-76
2022/03/01 00:03:28;;;;;;;13.82;6.28;;;;;;;8.86;95.92;101382.28;5081895;28;20477;-76
2022/03/01 00:05:53;;;;;;;12.18;5.72;;;;;;;8.86;95.74;101378.66;5060565;28;20028;-76
2022/03/01 00:08:19;;;;;;;10.50;6.10;;;;;;;8.87;95.80;101372.06;5038472;28;20047;-75
2022/03/01 00:10:44;;;;;;;13.48;6.50;;;;;;;8.87;96.59;101374.81;5040293;28;20024;-76
2022/03/01 00:13:10;;;;;;;14.27;6.25;;;;;;;8.86;96.41;101367.59;5048512;28;20028;-76
2022/03/01 00:15:37;;;;;;;13.45;6.07;;;;;;;8.84;96.06;101372.56;5066927;28;20039;-76
2022/03/01 00:18:02;;;;;;;11.43;6.97;;;;;;;8.85;97.00;101365.94;5031403;28;20059;-75
2022/03/01 00:20:28;;;;;;;12.25;6.10;;;;;;;8.84;96.96;101370.63;5052357;28;20108;-75
2022/03/01 00:22:54;;;;;;;12.23;5.78;;;;;;;8.83;96.30;101373.66;5048691;28;20043;-76
2022/03/01 00:25:19;;;;;;;9.93;5.55;;;;;;;8.82;96.38;101375.59;5035805;28;20041;-76
2022/03/01 00:27:45;;;;;;;13.10;6.47;;;;;;;8.81;96.84;101362.84;5036433;28;20048;-76
2022/03/01 00:30:11;;;;;;;13.88;6.70;;;;;;;8.80;96.10;101368.63;5038653;28;20083;-76
2022/03/01 00:32:37;;;;;;;11.65;6.10;;;;;;;8.82;97.13;101358.16;5020556;28;20025;-76
2022/03/01 00:35:03;;;;;;;10.23;6.47;;;;;;;8.82;98.18;101366.44;5042811;28;20059;-77
2022/03/01 00:37:28;;;;;;;12.75;6.00;;;;;;;8.80;96.39;101365.88;5042871;28;20035;-76
2022/03/01 00:39:54;;;;;;;13.13;5.95;;;;;;;8.78;96.15;101371.69;5037552;28;20081;-76
2022/03/01 00:42:19;;;;;;;13.20;6.25;;;;;;;8.77;96.29;101369.16;5025346;28;20039;-76
2022/03/01 00:44:45;;;;;;;12.32;6.22;;;;;;;8.75;96.57;101368.59;5021012;28;20036;-76
2022/03/01 00:47:10;;;;;;;12.40;6.25;;;;;;;8.73;96.51;101369.69;5054280;28;20029;-76
2022/03/01 00:49:35;;;;;;;13.38;6.50;;;;;;;8.73;96.71;101366.91;5012769;28;20040;-76
2022/03/01 00:52:01;;;;;;;11.73;5.72;;;;;;;8.72;96.75;101362.50;5074360;28;20032;-76
2022/03/01 00:54:26;;;;;;;12.82;6.85;;;;;;;8.74;96.80;101370.53;5049001;28;20476;-76
2022/03/01 00:56:52;;;;;;;11.32;6.35;;;;;;;8.72;96.99;101372.75;5042729;28;20542;-76
2022/03/01 00:59:17;;;;;;;13.77;6.70;;;;;;;8.75;97.88;101374.97;5027440;28;20028;-76
2022/03/01 01:01:43;;;;;;;12.40;5.82;;;;;;;8.70;96.63;101361.91;5059914;28;20036;-76
2022/03/01 01:04:08;;;;;;;11.10;6.38;;;;;;;8.70;96.58;101364.69;5041903;28;20048;-76
2022/03/01 01:06:34;;;;;;;12.65;6.93;;;;;;;8.74;97.76;101370.53;5054744;28;20029;-76
2022/03/01 01:08:59;;;;;;;11.20;6.50;;;;;;;8.72;98.19;101358.88;5070686;28;20501;-76
2022/03/01 01:11:25;;;;;;;9.93;5.80;;;;;;;8.71;98.99;101363.56;5059038;28;20062;-76
2022/03/01 01:13:50;;;;;;;14.40;6.88;;;;;;;8.70;98.38;101361.06;5059560;28;20025;-76
2022/03/01 01:16:16;;;;;;;14.77;6.53;;;;;;;8.70;98.20;101364.69;5076764;28;20204;-76
2022/03/01 01:18:43;;;;;;;14.27;7.18;;;;;;;8.70;99.12;101370.22;5087433;28;20094;-76
2022/03/01 01:21:10;;;;;;;10.70;5.88;;;;;;;8.71;98.33;101365.50;5044699;28;20047;-76
2022/03/01 01:23:36;;;;;;;15.25;6.53;;;;;;;8.71;97.59;101371.03;5049943;28;20028;-76
2022/03/01 01:26:02;;;;;;;12.35;6.50;;;;;;;8.69;96.69;101364.91;5057345;28;20394;-76
2022/03/01 01:28:27;;;;;;;15.20;7.15;;;;;;;8.68;98.06;101361.31;5060696;28;20052;-76
2022/03/01 01:30:52;;;;;;;14.60;6.35;;;;;;;8.69;97.77;101368.56;5058995;28;20497;-76
2022/03/01 01:33:18;;;;;;;9.55;5.95;;;;;;;8.69;97.88;101363.00;5071488;28;20421;-76
2022/03/01 01:35:43;;;;;;;12.27;6.57;;;;;;;8.69;97.02;101364.91;5074516;28;20028;-76
2022/03/01 01:38:09;;;;;;;11.75;6.35;;;;;;;8.67;96.42;101364.38;5042337;28;20039;-76
2022/03/01 01:40:34;;;;;;;11.25;6.22;;;;;;;8.66;96.71;101363.53;5046358;28;20016;-77
2022/03/01 01:43:00;;;;;;;10.15;6.43;;;;;;;8.67;96.82;101361.59;5076329;28;20088;-77
2022/03/01 01:45:26;;;;;;;10.48;6.15;;;;;;;8.67;97.08;101365.19;5040700;28;20821;-76
2022/03/01 01:47:52;;;;;;;11.48;6.50;;;;;;;8.66;96.68;101374.63;5062179;28;20488;-76
2022/03/01 01:50:17;;;;;;;11.50;7.30;;;;;;;8.67;97.66;101369.91;5071412;28;20040;-76
2022/03/01 01:52:45;;;;;;;12.77;6.57;;;;;;;8.65;97.25;101372.94;5056630;28;20102;-76
2022/03/01 01:55:10;;;;;;;15.95;7.63;;;;;;;8.66;97.85;101376.53;5058225;28;20094;-76
2022/03/01 01:57:36;;;;;;;14.05;6.70;;;;;;;8.66;98.67;101382.06;5060925;28;20032;-76
2022/03/01 02:00:01;;;;;;;13.18;6.93;;;;;;;8.66;98.11;101373.75;5043272;28;20053;-76
2022/03/01 02:02:27;;;;;;;13.50;7.72;;;;;;;8.67;98.36;101386.53;5055464;28;20028;-77
2022/03/01 02:04:52;;;;;;;12.35;7.70;;;;;;;8.68;98.04;101388.19;5072785;28;20028;-76
2022/03/01 02:07:18;;;;;;;11.82;7.13;;;;;;;8.69;98.61;101378.78;5057774;28;20040;-76
2022/03/01 02:09:43;;;;;;;11.10;7.10;;;;;;;8.69;99.27;101367.69;5065983;28;20024;-76
2022/03/01 02:12:10;;;;;;;13.65;7.43;;;;;;;8.69;100.00;101363.00;5060409;28;20024;-76
2022/03/01 02:14:37;;;;;;;12.68;6.88;;;;;;;8.70;100.00;101366.63;5062586;28;20016;-76
2022/03/01 02:17:08;;;;;;;13.85;6.82;;;;;;;8.70;100.00;101361.91;5050182;28;20149;-76
2022/03/01 02:19:33;;;;;;;11.27;6.75;;;;;;;8.69;100.00;101357.47;5059508;28;20370;-76
2022/03/01 02:21:59;;;;;;;9.75;6.70;;;;;;;8.69;100.00;101360.25;5049529;28;20043;-76
2022/03/01 02:24:28;;;;;;;14.60;6.93;;;;;;;8.68;100.00;101355.78;5061636;28;20493;-76
2022/03/01 02:27:01;;;;;;;12.80;7.50;;;;;;;8.66;100.00;101358.00;5057603;28;20039;-76
2022/03/01 02:29:27;;;;;;;12.73;7.15;;;;;;;8.65;100.00;101356.31;5076769;28;20489;-76
2022/03/01 02:31:53;;;;;;;16.98;8.00;;;;;;;8.63;100.00;101346.59;5065162;28;20107;-76
2022/03/01 02:34:19;;;;;;;12.20;7.20;;;;;;;8.65;100.00;101358.25;5084207;28;20036;-76
2022/03/01 02:36:45;;;;;;;11.63;7.85;;;;;;;8.60;100.00;101345.16;5043549;28;20524;-76
2022/03/01 02:39:10;;;;;;;11.15;6.75;;;;;;;8.60;100.00;101347.94;5049563;28;20059;-76
2022/03/01 02:41:37;;;;;;;11.23;6.68;;;;;;;8.61;100.00;101352.41;5032031;28;20032;-76
2022/03/01 02:44:03;;;;;;;12.73;7.28;;;;;;;8.59;100.00;101351.81;5046280;28;20400;-76
2022/03/01 02:46:28;;;;;;;11.85;6.97;;;;;;;8.58;100.00;101341.84;5046747;28;20035;-76
2022/03/01 02:48:54;;;;;;;14.63;7.72;;;;;;;8.58;100.00;101336.31;5082272;28;20046;-76
2022/03/01 02:51:19;;;;;;;11.50;7.13;;;;;;;8.58;100.00;101332.69;5066687;28;20043;-76
2022/03/01 02:53:45;;;;;;;11.30;6.50;;;;;;;8.59;100.00;101337.16;5063392;28;20028;-76
2022/03/01 02:56:10;;;;;;;14.77;7.32;;;;;;;8.58;100.00;101322.47;5048624;28;20032;-76
2022/03/01 02:58:36;;;;;;;9.95;6.75;;;;;;;8.58;100.00;101322.47;5078189;28;20020;-76
2022/03/01 03:01:01;;;;;;;15.52;8.50;;;;;;;8.55;100.00;101325.72;5091418;28;20035;-76
2022/03/01 03:03:27;;;;;;;13.85;7.15;;;;;;;8.54;100.00;101312.16;5065436;28;20269;-76
2022/03/01 03:05:52;;;;;;;12.23;7.32;;;;;;;8.56;100.00;101309.97;5052415;28;20031;-76
2022/03/01 03:08:18;;;;;;;13.10;7.00;;;;;;;8.56;100.00;101302.50;5059220;28;20067;-76
2022/03/01 03:10:43;;;;;;;14.68;7.65;;;;;;;8.54;100.00;101299.16;5046025;28;20025;-76
2022/03/01 03:13:09;;;;;;;14.43;7.03;;;;;;;8.53;100.00;101291.97;5060212;28;20485;-76
2022/03/01 03:15:34;;;;;;;13.85;7.43;;;;;;;8.52;100.00;101293.03;5056996;28;20028;-76
2022/03/01 03:18:00;;;;;;;15.05;7.85;;;;;;;8.50;100.00;101290.53;5066761;28;20036;-76
2022/03/01 03:20:25;;;;;;;13.65;7.47;;;;;;;8.49;100.00;101286.09;5073608;28;20052;-76
2022/03/01 03:22:51;;;;;;;17.33;7.53;;;;;;;8.45;100.00;101287.72;5046316;28;20036;-76
2022/03/01 03:25:17;;;;;;;16.10;7.85;;;;;;;8.46;100.00;101285.78;5051297;28;20037;-76
2022/03/01 03:27:42;;;;;;;17.30;7.57;;;;;;;8.44;100.00;101293.50;5068104;28;20593;-76
2022/03/01 03:30:08;;;;;;;19.55;9.48;;;;;;;8.40;100.00;101297.91;5061991;28;20036;-76
2022/03/01 03:32:34;;;;;;;17.50;7.03;;;;;;;8.41;100.00;101285.72;5076334;28;20036;-76
2022/03/01 03:34:59;;;;;;;14.73;7.45;;;;;;;8.41;100.00;101280.19;5060242;28;20051;-76
2022/03/01 03:37:25;;;;;;;19.45;8.20;;;;;;;8.38;100.00;101275.13;5041498;28;20100;-76
2022/03/01 03:39:50;;;;;;;16.30;8.35;;;;;;;8.37;100.00;101279.03;5076062;28;20032;-76
2022/03/01 03:42:16;;;;;;;11.07;7.28;;;;;;;8.35;100.00;101278.44;5041397;28;20082;-76
2022/03/01 03:44:42;;;;;;;20.10;8.68;;;;;;;8.37;100.00;101281.78;5064956;28;20024;-76
2022/03/01 03:47:08;;;;;;;20.27;8.07;;;;;;;8.36;100.00;101282.88;5060196;28;20095;-76
2022/03/01 03:49:33;;;;;;;13.88;8.05;;;;;;;8.35;100.00;101279.25;5060581;28;20059;-76
2022/03/01 03:51:59;;;;;;;18.48;8.13;;;;;;;8.38;100.00;101288.97;5048981;28;20478;-76
2022/03/01 03:54:25;;;;;;;14.48;7.80;;;;;;;8.34;100.00;101285.06;5046063;28;20058;-76
2022/03/01 03:56:50;;;;;;;14.82;8.20;;;;;;;8.36;100.00;101297.56;5056742;28;20032;-76
2022/03/01 03:59:16;;;;;;;14.20;8.50;;;;;;;8.36;100.00;101296.69;5057290;28;20039;-76
2022/03/01 04:01:41;;;;;;;17.25;8.10;;;;;;;8.38;100.00;101295.34;5062007;28;20032;-76
2022/03/01 04:04:08;;;;;;;13.10;7.63;;;;;;;8.38;100.00;101294.50;5040044;28;20448;-76
2022/03/01 04:06:34;;;;;;;13.10;7.32;;;;;;;8.37;100.00;101290.09;5060068;28;20032;-76
2022/03/01 04:08:59;;;;;;;11.88;6.93;;;;;;;8.38;100.00;101289.81;5064716;28;20404;-76
2022/03/01 04:11:25;;;;;;;15.10;8.30;;;;;;;8.39;100.00;101296.25;5059870;28;20033;-76
2022/03/01 04:13:52;;;;;;;17.92;9.30;;;;;;;8.37;100.00;101292.84;5048083;28;20028;-76
2022/03/01 04:16:18;;;;;;;13.60;7.30;;;;;;;8.37;100.00;101290.91;5044519;28;20409;-75
2022/03/01 04:18:43;;;;;;;11.38;7.60;;;;;;;8.39;100.00;101299.84;5049893;28;20031;-75
2022/03/01 04:21:10;;;;;;;13.30;7.03;;;;;;;8.39;100.00;101301.78;5066249;28;20480;-76
2022/03/01 04:23:37;;;;;;;17.63;8.82;;;;;;;8.39;100.00;101299.00;5077847;28;20047;-76
2022/03/01 04:26:02;;;;;;;16.30;8.88;;;;;;;8.38;100.00;101297.28;5071709;28;20027;-76
2022/03/01 04:28:28;;;;;;;14.30;8.50;;;;;;;8.40;100.00;101297.91;5070822;28;20078;-76
2022/03/01 04:30:54;;;;;;;15.20;8.77;;;;;;;8.40;100.00;101297.91;5082919;28;20024;-76
2022/03/01 04:33:20;;;;;;;14.82;7.78;;;;;;;8.39;100.00;101296.25;5054213;28;20381;-75
2022/03/01 04:35:45;;;;;;;13.73;7.90;;;;;;;8.38;100.00;101292.59;5095388;28;20032;-75
2022/03/01 04:38:11;;;;;;;16.27;8.65;;;;;;;8.39;100.00;101291.53;5046506;28;20041;-76
2022/03/01 04:40:37;;;;;;;14.38;8.88;;;;;;;8.40;100.00;101289.59;5070586;28;20094;-76
2022/03/01 04:43:03;;;;;;;19.15;9.45;;;;;;;8.41;100.00;101288.50;5066464;28;20035;-76
2022/03/01 04:45:28;;;;;;;12.43;7.60;;;;;;;8.40;100.00;101289.59;5086624;28;20035;-76
2022/03/01 04:47:54;;;;;;;19.83;10.13;;;;;;;8.40;100.00;101286.81;5062198;28;20032;-76
2022/03/01 04:50:19;;;;;;;16.92;8.73;;;;;;;8.40;100.00;101286.81;5079964;28;20043;-76
2022/03/01 04:52:45;;;;;;;16.23;8.60;;;;;;;8.42;100.00;101287.41;5051067;28;20029;-76
2022/03/01 04:55:10;;;;;;;14.15;8.45;;;;;;;8.40;100.00;101295.13;5081018;28;20036;-76
2022/03/01 04:57:36;;;;;;;13.77;7.78;;;;;;;8.40;100.00;101290.44;5043355;28;20133;-76
2022/03/01 05:00:02;;;;;;;14.65;8.57;;;;;;;8.40;100.00;101295.97;5046382;28;20032;-76
2022/03/01 05:02:28;;;;;;;15.30;8.70;;;;;;;8.39;100.00;101287.94;5099264;28;20035;-76
2022/03/01 05:04:53;;;;;;;14.65;8.43;;;;;;;8.38;100.00;101295.34;5053843;28;20016;-76
2022/03/01 05:07:19;;;;;;;14.38;8.30;;;;;;;8.38;100.00;101286.22;5054237;28;20044;-76
2022/03/01 05:09:44;;;;;;;14.80;8.00;;;;;;;8.38;100.00;101288.97;5065147;28;20085;-76
2022/03/01 05:12:10;;;;;;;13.98;7.85;;;;;;;8.38;99.49;101291.75;5040346;28;20148;-76
2022/03/01 05:14:35;;;;;;;17.50;8.88;;;;;;;8.37;100.00;101282.63;5053299;28;20032;-76
2022/03/01 05:17:01;;;;;;;16.17;9.25;;;;;;;8.38;100.00;101284.28;5068793;28;20026;-76
2022/03/01 05:19:26;;;;;;;14.65;8.30;;;;;;;8.38;100.00;101284.28;5050734;28;20036;-76
2022/03/01 05:21:52;;;;;;;14.75;8.07;;;;;;;8.38;100.00;101286.22;5046357;28;20028;-76
2022/03/01 05:24:17;;;;;;;14.38;8.32;;;;;;;8.38;100.00;101272.38;5063490;28;20031;-76
2022/03/01 05:26:44;;;;;;;14.88;8.23;;;;;;;8.37;100.00;101282.63;5087722;28;20032;-76
2022/03/01 05:29:10;;;;;;;15.63;9.57;;;;;;;8.38;100.00;101278.75;5085756;28;20028;-76
2022/03/01 05:31:35;;;;;;;16.02;9.20;;;;;;;8.36;100.00;101269.88;5068011;28;20073;-76
2022/03/01 05:34:01;;;;;;;14.80;9.30;;;;;;;8.35;100.00;101273.72;5064122;28;20032;-76
2022/03/01 05:36:26;;;;;;;18.20;9.88;;;;;;;8.34;100.00;101274.00;5053131;28;20640;-76
2022/03/01 05:38:52;;;;;;;19.30;11.13;;;;;;;8.33;100.00;101269.56;5066870;28;20035;-76
2022/03/01 05:41:19;;;;;;;13.88;9.35;;;;;;;8.32;100.00;101267.88;5073255;28;20492;-76
2022/03/01 05:43:45;;;;;;;17.52;10.57;;;;;;;8.30;100.00;101270.91;5063555;28;20162;-76
2022/03/01 05:46:10;;;;;;;21.90;11.95;;;;;;;8.29;100.00;101270.06;5048587;28;20046;-76
2022/03/01 05:48:36;;;;;;;19.80;11.13;;;;;;;8.31;100.00;101266.22;5087301;28;20412;-76
2022/03/01 05:51:02;;;;;;;17.02;10.45;;;;;;;8.29;100.00;101269.25;5058978;28;20062;-75
2022/03/01 05:53:28;;;;;;;18.58;10.50;;;;;;;8.27;100.00;101271.44;5044162;28;20028;-76
2022/03/01 05:55:53;;;;;;;14.23;10.18;;;;;;;8.28;100.00;101267.59;5051301;28;20439;-76
2022/03/01 05:58:19;;;;;;;20.55;10.93;;;;;;;8.28;100.00;101267.59;5067922;28;20024;-76
2022/03/01 06:00:44;;;;;;;17.35;10.80;;;;;;;8.28;100.00;101265.66;5084002;28;20034;-76
2022/03/01 06:03:10;;;;;;;16.60;10.27;;;;;;;8.28;100.00;101262.03;5035739;28;20035;-77
2022/03/01 06:05:35;;;;;;;21.13;11.57;;;;;;;8.28;100.00;101259.28;5050202;28;20506;-76
2022/03/01 06:08:01;;;;;;;19.27;10.55;;;;;;;8.27;100.00;101257.59;5060035;28;20040;-76
2022/03/01 06:10:26;;;;;;;18.30;11.02;;;;;;;8.27;100.00;101265.88;5077927;28;20033;-76
2022/03/01 06:12:52;;;;;;;18.20;10.55;;;;;;;8.27;100.00;101260.34;5053071;28;20084;-76
2022/03/01 06:15:18;;;;;;;21.58;11.63;;;;;;;8.27;100.00;101269.53;5049700;28;20032;-76
2022/03/01 06:17:43;;;;;;;16.63;10.65;;;;;;;8.26;100.00;101267.81;5047790;28;20024;-76
2022/03/01 06:20:09;;;;;;;18.40;11.43;;;;;;;8.26;100.00;101264.22;5061973;28;20028;-76
2022/03/01 06:22:35;;;;;;;19.00;11.32;;;;;;;8.27;100.00;101265.88;5080441;28;20039;-76
2022/03/01 06:25:01;;;;;;;18.55;11.80;;;;;;;8.26;100.00;101267.81;5056300;28;20032;-76
2022/03/01 06:27:27;;;;;;;18.48;10.70;;;;;;;8.27;100.00;101266.75;5061295;28;20520;-76
2022/03/01 06:29:53;;;;;;;21.83;11.25;;;;;;;8.26;100.00;101265.06;5066329;28;20034;-76
2022/03/01 06:32:18;;;;;;;19.80;11.20;;;;;;;8.26;100.00;101267.81;5068121;28;20024;-76
2022/03/01 06:34:44;;;;;;;18.10;11.82;;;;;;;8.26;100.00;101272.53;5065115;28;20055;-76
2022/03/01 06:37:13;;;;;;;19.95;11.05;;;;;;;8.26;100.00;101265.06;5061028;28;20032;-76
2022/03/01 06:39:40;;;;;;;21.40;12.77;;;;;;;8.26;100.00;101270.59;5065113;28;20358;-77
2022/03/01 06:42:06;;;;;;;23.48;12.10;;;;;;;8.24;100.00;101264.47;5048721;28;20032;-76
2022/03/01 06:44:32;;;;;;;23.67;11.88;;;;;;;8.22;100.00;101269.47;5065314;28;20032;-76
2022/03/01 06:46:57;;;;;;;19.65;12.10;;;;;;;8.24;100.00;101271.94;5064168;28;20023;-76
2022/03/01 06:49:23;;;;;;;17.63;11.95;;;;;;;8.22;100.00;101279.69;5062964;28;20028;-76
2022/03/01 06:51:48;;;;;;;21.42;12.57;;;;;;;8.22;100.00;101282.47;5052985;28;20029;-76
2022/03/01 06:54:14;;;;;;;24.88;12.95;;;;;;;8.19;100.00;101278.28;5072321;28;20028;-76
2022/03/01 06:56:39;;;;;;;20.92;13.13;;;;;;;8.20;100.00;101277.19;5063957;28;20039;-75
2022/03/01 06:59:04;;;;;;;19.15;11.77;;;;;;;8.21;100.00;101289.91;5048098;28;20043;-76
2022/03/01 07:01:30;;;;;;;27.35;13.75;;;;;;;8.20;100.00;101284.66;5045372;28;20020;-76
2022/03/01 07:03:55;;;;;;;24.83;15.00;;;;;;;8.18;100.00;101278.53;5046512;28;20096;-76
2022/03/01 07:06:21;;;;;;;24.50;13.60;;;;;;;8.19;100.00;101280.19;5073291;28;20024;-75
2022/03/01 07:08:47;;;;;;;23.35;13.20;;;;;;;8.19;100.00;101280.19;5049031;28;20052;-76
2022/03/01 07:11:12;;;;;;;21.58;12.57;;;;;;;8.16;100.00;101287.09;5077510;28;20036;-76
2022/03/01 07:13:37;;;;;;;23.38;12.82;;;;;;;8.17;100.00;101299.84;5063642;28;20024;-76
2022/03/01 07:16:05;;;;;;;20.40;13.50;;;;;;;8.16;100.00;101297.31;5067975;28;20023;-76
2022/03/01 07:18:30;;;;;;;19.67;12.85;;;;;;;8.19;100.00;101296.78;5081285;28;20045;-76
2022/03/01 07:20:56;;;;;;;23.40;13.13;;;;;;;8.19;100.00;101300.41;5052959;28;20125;-76
2022/03/01 07:23:21;;;;;;;27.15;14.52;;;;;;;8.19;100.00;101300.41;5067493;28;20036;-73
2022/03/01 07:25:47;;;;;;;20.15;13.00;;;;;;;8.18;100.00;101298.72;5078636;28;20036;-73
2022/03/01 07:28:12;;;;;;;20.13;13.25;;;;;;;8.19;100.00;101288.50;5080237;28;20048;-73
2022/03/01 07:30:38;;;;;;;20.70;13.07;;;;;;;8.20;100.00;101293.78;5079009;28;20024;-76
2022/03/01 07:33:03;;;;;;;25.25;13.07;;;;;;;8.22;100.00;101299.91;5070361;28;20020;-75
2022/03/01 07:35:29;;;;;;;19.63;12.48;;;;;;;8.21;100.00;101295.44;5050578;28;20500;-71
2022/03/01 07:37:55;;;;;;;19.60;11.80;;;;;;;8.22;100.00;101302.66;5047776;28;20032;-75
2022/03/01 07:40:24;;;;;;;17.23;10.88;;;;;;;8.24;100.00;101305.97;5089216;28;20032;-75
2022/03/01 07:42:50;;;;;;;18.73;10.80;;;;;;;8.26;100.00;101309.34;5047722;28;20039;-75
2022/03/01 07:45:15;;;;;;;21.65;11.45;;;;;;;8.28;100.00;101306.31;5062599;28;20468;-75
2022/03/01 07:47:41;;;;;;;17.27;10.55;;;;;;;8.28;100.00;101312.69;5067217;28;20035;-75
2022/03/01 07:50:07;;;;;;;22.08;11.10;;;;;;;8.31;100.00;101321.56;5048928;28;20053;-75
2022/03/01 07:52:32;;;;;;;22.13;11.20;;;;;;;8.34;100.00;101315.53;5068135;28;20062;-75
2022/03/01 07:54:58;;;;;;;19.30;10.85;;;;;;;8.36;100.00;101324.38;5046753;28;20060;-75
2022/03/01 07:57:23;;;;;;;19.27;10.65;;;;;;;8.38;100.00;101323.03;5062948;28;20023;-75
2022/03/01 07:59:49;;;;;;;17.80;11.27;;;;;;;8.42;100.00;101327.00;5064854;28;20492;-76
2022/03/01 08:02:14;;;;;;;21.33;11.55;;;;;;;8.42;100.00;101313.16;5048639;28;20037;-75
2022/03/01 08:04:41;;;;;;;21.23;10.95;;;;;;;8.46;100.00;101319.84;5060047;28;20028;-75
2022/03/01 08:07:10;;;;;;;18.88;11.50;;;;;;;8.48;100.00;101316.81;5050436;28;20074;-75
2022/03/01 08:09:39;;;;;;;20.95;11.93;;;;;;;8.50;100.00;101320.16;5040205;28;20058;-77
2022/03/01 08:12:05;;;;;;;19.98;11.35;;;;;;;8.52;100.00;101329.03;5036999;28;20028;-74
2022/03/01 08:14:31;;;;;;;19.42;11.30;;;;;;;8.55;100.00;101331.28;5075637;28;20043;-75
2022/03/01 08:17:01;;;;;;;24.38;12.07;;;;;;;8.56;100.00;101319.13;5046212;28;20037;-79
2022/03/01 08:19:26;;;;;;;20.88;12.32;;;;;;;8.59;100.00;101313.06;5051459;28;20064;-76
2022/03/01 08:21:52;;;;;;;23.10;13.07;;;;;;;8.61;100.00;101316.41;5048784;28;20028;-76
2022/03/01 08:24:17;;;;;;;27.55;12.45;;;;;;;8.63;100.00;101305.06;5060901;28;20500;-76
2022/03/01 08:26:43;;;;;;;24.20;12.20;;;;;;;8.67;100.00;101317.28;5037536;28;20048;-76
2022/03/01 08:29:09;;;;;;;20.05;11.95;;;;;;;8.69;100.00;101323.38;5052794;28;20101;-76
2022/03/01 08:31:36;;;;;;;22.00;12.80;;;;;;;8.72;100.00;101315.41;5050984;28;20074;-76
2022/03/01 08:34:01;;;;;;;23.75;13.23;;;;;;;8.77;100.00;101322.06;5020765;28;20023;-76
2022/03/01 08:36:27;;;;;;;24.05;12.23;;;;;;;8.81;100.00;101317.72;5057466;28;20107;-76
2022/03/01 08:38:52;;;;;;;26.00;12.70;;;;;;;8.85;100.00;101327.97;5025485;28;20028;-76
2022/03/01 08:41:18;;;;;;;24.15;13.23;;;;;;;8.91;100.00;101320.53;5039565;28;20044;-76
2022/03/01 08:43:44;;;;;;;18.42;12.35;;;;;;;8.94;100.00;101323.66;5052801;28;20033;-76
2022/03/01 08:46:11;;;;;;;19.10;12.05;;;;;;;9.01;100.00;101323.41;5006746;28;20059;-75
2022/03/01 08:48:37;;;;;;;24.80;13.27;;;;;;;9.06;100.00;101322.63;5032261;28;20042;-76
2022/03/01 08:51:02;;;;;;;23.50;13.00;;;;;;;9.11;100.00;101326.28;5049864;28;20029;-76
2022/03/01 08:53:28;;;;;;;20.45;12.60;;;;;;;9.18;100.00;101331.59;5047664;28;20048;-76
2022/03/01 08:55:54;;;;;;;26.15;13.38;;;;;;;9.26;100.00;101327.50;5053033;28;20032;-76
2022/03/01 08:58:20;;;;;;;26.33;13.73;;;;;;;9.34;100.00;101324.25;5032102;28;20062;-76
2022/03/01 09:00:45;;;;;;;24.30;13.48;;;;;;;9.42;100.00;101317.34;5026591;28;20052;-76
2022/03/01 09:03:11;;;;;;;25.75;12.50;;;;;;;9.49;100.00;101321.56;5008591;28;20064;-76
2022/03/01 09:05:37;;;;;;;24.15;11.95;;;;;;;9.55;100.00;101322.44;5058660;28;20029;-76
2022/03/01 09:08:03;;;;;;;23.50;12.02;;;;;;;9.62;100.00;101321.09;5032405;28;20044;-76
2022/03/01 09:10:29;;;;;;;25.70;11.95;;;;;;;9.69;100.00;101317.25;5044090;28;20067;-76
2022/03/01 09:12:55;;;;;;;21.00;12.75;;;;;;;9.79;100.00;101314.53;5044911;28;20049;-76
2022/03/01 09:15:21;;;;;;;21.95;11.50;;;;;;;9.87;100.00;101316.81;5046915;28;20626;-76
2022/03/01 09:17:46;;;;;;;25.75;13.57;;;;;;;9.94;100.00;101316.53;5048086;28;20036;-76
2022/03/01 09:20:12;;;;;;;20.83;11.15;;;;;;;10.02;100.00;101318.81;5057908;28;20056;-76
2022/03/01 09:22:38;;;;;;;19.38;11.63;;;;;;;10.10;100.00;101317.47;5057224;28;20024;-76
2022/03/01 09:25:04;;;;;;;22.35;11.43;;;;;;;10.20;100.00;101320.28;5060055;28;20041;-76
2022/03/01 09:27:30;;;;;;;19.88;10.70;;;;;;;10.30;100.00;101314.78;5028176;28;20025;-76
2022/03/01 09:29:56;;;;;;;21.52;11.38;;;;;;;10.40;100.00;101314.81;5032037;28;20036;-76
2022/03/01 09:32:22;;;;;;;20.15;11.30;;;;;;;10.51;100.00;101310.97;5062541;28;20025;-76
2022/03/01 09:34:47;;;;;;;20.42;10.82;;;;;;;10.60;100.00;101314.03;5052262;28;20473;-76
2022/03/01 09:37:13;;;;;;;18.63;10.68;;;;;;;10.70;100.00;101313.22;5026593;28;20032;-76
2022/03/01 09:39:38;;;;;;;24.33;9.43;;;;;;;10.80;100.00;101313.22;5069854;28;20028;-76
2022/03/01 09:42:05;;;;;;;18.17;9.23;;;;;;;10.92;100.00;101305.47;5060156;28;20033;-76
2022/03/01 09:44:30;;;;;;;19.90;9.75;;;;;;;11.02;100.00;101303.81;5043826;28;20078;-76
2022/03/01 09:46:56;;;;;;;16.65;9.27;;;;;;;11.10;100.00;101306.03;5049882;28;20060;-76
2022/03/01 09:49:21;;;;;;;23.05;10.40;;;;;;;11.18;100.00;101302.69;5019735;28;20035;-76
2022/03/01 09:51:47;;;;;;;19.17;9.02;;;;;;;11.25;99.48;101302.41;5055979;28;20032;-76
2022/03/01 09:54:13;;;;;;;18.92;9.23;;;;;;;11.30;99.45;101297.66;5058361;28;20078;-77
2022/03/01 09:56:38;;;;;;;18.20;9.27;;;;;;;11.37;99.20;101297.41;5051503;28;20033;-76
2022/03/01 09:59:04;;;;;;;15.95;8.60;;;;;;;11.44;98.17;101302.66;5040933;28;20059;-77
2022/03/01 10:01:29;;;;;;;16.58;9.05;;;;;;;11.50;98.39;101299.56;5066382;28;20036;-76
2022/03/01 10:04:09;;;;;;;18.70;9.15;;;;;;;11.58;97.81;101300.97;5057706;28;20021;-76
2022/03/01 10:06:42;;;;;;;17.25;8.93;;;;;;;11.66;97.43;101294.81;5071151;28;20032;-77
2022/03/01 10:09:17;;;;;;;21.00;10.07;;;;;;;11.72;97.27;101296.47;5061549;28;20497;-77
2022/03/01 10:11:43;;;;;;;18.30;9.88;;;;;;;11.83;98.21;101297.28;5078376;28;20488;-77
2022/03/01 10:14:09;;;;;;;14.32;8.60;;;;;;;11.92;97.06;101300.31;5057791;28;20017;-77
2022/03/01 10:16:45;;;;;;;17.83;10.27;;;;;;;12.03;97.11;101297.22;5044299;28;20068;-77
2022/03/01 10:19:20;;;;;;;23.30;10.95;;;;;;;12.13;96.04;101295.53;5063989;28;20107;-76
2022/03/01 10:21:56;;;;;;;21.80;10.75;;;;;;;12.21;96.19;101287.41;5059226;28;20024;-77
2022/03/01 10:24:21;;;;;;;17.70;10.27;;;;;;;12.31;96.94;101300.44;5076552;28;20039;-77
2022/03/01 10:26:49;;;;;;;19.55;10.57;;;;;;;12.41;96.34;101296.78;5061733;28;20037;-77
2022/03/01 10:29:15;;;;;;;18.88;10.77;;;;;;;12.49;95.89;101290.59;5042691;28;20082;-77
2022/03/01 10:31:41;;;;;;;20.70;10.45;;;;;;;12.57;94.00;101290.00;5061749;28;20492;-77
2022/03/01 10:34:06;;;;;;;19.58;11.50;;;;;;;12.64;93.40;101301.63;5061445;28;20017;-77
2022/03/01 10:36:33;;;;;;;25.08;11.15;;;;;;;12.68;91.60;101299.13;5055954;28;20044;-77
2022/03/01 10:39:05;;;;;;;18.55;11.57;;;;;;;12.73;93.71;101308.28;5070651;28;20086;-77
2022/03/01 10:41:36;;;;;;;17.80;11.30;;;;;;;12.77;92.96;101302.94;5058910;28;20032;-77
2022/03/01 10:44:03;;;;;;;21.08;12.60;;;;;;;12.79;93.88;101297.06;5057224;28;20032;-77
2022/03/01 10:46:30;;;;;;;21.08;11.20;;;;;;;12.78;94.11;101296.25;5041897;28;20024;-76
2022/03/01 10:49:16;;;;;;;19.05;10.98;;;;;;;12.74;93.02;101293.22;5060390;28;20066;-77
2022/03/01 10:52:01;;;;;;;20.58;11.75;;;;;;;12.70;93.82;101286.56;5068021;28;20092;-76
2022/03/01 10:54:37;;;;;;;19.00;11.63;;;;;;;12.67;93.75;101284.31;5055134;28;20024;-76
2022/03/01 10:57:04;;;;;;;24.55;11.43;;;;;;;12.66;93.73;101284.63;5068473;28;20028;-76
2022/03/01 10:59:31;;;;;;;21.88;12.93;;;;;;;12.63;93.66;101286.03;5058745;28;20051;-76
2022/03/01 11:01:56;;;;;;;22.75;12.45;;;;;;;12.66;94.19;101293.81;5042526;28;20056;-77
2022/03/01 11:04:22;;;;;;;22.25;11.95;;;;;;;12.70;93.47;101289.34;5056302;28;20404;-77
2022/03/01 11:06:48;;;;;;;20.60;12.77;;;;;;;12.72;93.64;101292.66;5059619;28;20029;-77
2022/03/01 11:09:14;;;;;;;21.20;11.38;;;;;;;12.81;92.91;101289.25;5064248;28;20043;-77